createdAt,value
2022-08-12T00:00:32.575Z,25.89
2022-08-12T00:06:00.479Z,25.41
2022-08-12T00:11:26.591Z,25.61
2022-08-12T00:16:48.832Z,25.85
2022-08-12T00:22:10.157Z,25.78
2022-08-12T00:27:43.463Z,25.04
2022-08-12T00:33:06.565Z,24.62
2022-08-12T00:38:27.861Z,24.98
2022-08-12T00:43:30.602Z,24.58
2022-08-12T00:48:34.090Z,24.19
2022-08-12T00:53:38.657Z,23.72
2022-08-12T00:58:48.676Z,24.59
2022-08-12T01:04:10.706Z,24.03
2022-08-12T01:09:34.134Z,24.24
2022-08-12T01:14:39.358Z,24.18
2022-08-12T01:19:42.159Z,23.65
2022-08-12T01:25:10.087Z,24.15
2022-08-12T01:30:14.462Z,24.70
2022-08-12T01:35:17.860Z,24.11
2022-08-12T01:40:33.273Z,23.99
2022-08-12T01:45:57.613Z,24.43
2022-08-12T01:52:20.062Z,23.95
2022-08-12T01:57:58.085Z,23.06
2022-08-12T02:03:06.435Z,22.53
2022-08-12T02:08:44.965Z,22.98
2022-08-12T02:13:55.393Z,24.03
2022-08-12T02:19:22.870Z,24.56
2022-08-12T02:24:31.311Z,24.81
2022-08-12T02:29:35.050Z,24.76
2022-08-12T02:34:40.543Z,24.66
2022-08-12T02:39:49.294Z,24.32
2022-08-12T02:44:55.087Z,24.49
2022-08-12T02:50:01.977Z,24.18
2022-08-12T02:55:34.839Z,24.05
2022-08-12T03:00:39.095Z,23.25
2022-08-12T03:06:21.773Z,23.88
2022-08-12T03:11:42.951Z,23.08
2022-08-12T03:17:09.534Z,22.15
2022-08-12T03:22:14.297Z,22.05
2022-08-12T03:27:17.757Z,22.76
2022-08-12T03:32:36.353Z,23.33
2022-08-12T03:37:41.646Z,23.43
2022-08-12T03:43:07.368Z,23.51
2022-08-12T03:48:34.247Z,23.28
2022-08-12T03:53:56.343Z,23.51
2022-08-12T03:59:19.648Z,23.91
2022-08-12T04:04:28.621Z,23.97
2022-08-12T04:09:31.921Z,23.99
2022-08-12T04:14:35.814Z,23.98
2022-08-12T04:19:38.644Z,24.07
2022-08-12T04:24:41.992Z,24.02
2022-08-12T04:30:16.533Z,23.64
2022-08-12T04:35:08.202Z,23.82
2022-08-12T04:40:13.391Z,23.67
2022-08-12T04:45:15.965Z,23.75
2022-08-12T04:50:33.955Z,23.68
2022-08-12T04:55:40.338Z,24.11
2022-08-12T05:00:42.802Z,24.20
2022-08-12T05:05:46.612Z,24.19
2022-08-12T05:10:49.790Z,24.26
2022-08-12T05:16:02.369Z,23.57
2022-08-12T05:21:09.079Z,23.55
2022-08-12T05:26:11.900Z,23.64
2022-08-12T05:31:14.503Z,23.53
2022-08-12T05:36:36.977Z,23.75
2022-08-12T05:41:40.027Z,23.32
2022-08-12T05:46:43.255Z,23.75
2022-08-12T05:51:46.005Z,24.27
2022-08-12T05:56:48.660Z,24.79
2022-08-12T06:02:09.254Z,24.96
2022-08-12T06:07:59.810Z,25.25
2022-08-12T06:12:37.240Z,25.22
2022-08-12T06:17:39.666Z,25.45
2022-08-12T06:22:46.323Z,25.74
2022-08-12T06:28:06.824Z,26.02
2022-08-12T06:33:11.774Z,26.07
2022-08-12T06:38:25.603Z,26.22
2022-08-12T06:43:28.512Z,26.37
2022-08-12T06:48:55.755Z,26.49
2022-08-12T06:53:59.875Z,26.65
2022-08-12T06:59:03.351Z,26.69
2022-08-12T07:04:36.197Z,26.88
2022-08-12T07:10:03.821Z,27.04
2022-08-12T07:14:51.723Z,27.30
2022-08-12T07:19:57.994Z,27.49
2022-08-12T07:25:22.255Z,27.79
2022-08-12T07:30:25.119Z,27.82
2022-08-12T07:35:28.546Z,27.96
2022-08-12T07:40:31.207Z,28.27
2022-08-12T07:45:33.678Z,28.75
2022-08-12T07:50:36.285Z,28.81
2022-08-12T07:55:39.416Z,28.91
2022-08-12T08:00:42.427Z,29.24
2022-08-12T08:05:46.604Z,29.34
2022-08-12T08:10:51.626Z,29.49
2022-08-12T08:16:04.137Z,29.92
2022-08-12T08:21:06.994Z,30.57
2022-08-12T08:26:10.923Z,30.32
2022-08-12T08:31:15.071Z,30.64
2022-08-12T08:36:23.951Z,30.48
2022-08-12T08:42:19.027Z,30.63
2022-08-12T08:47:11.770Z,31.18
2022-08-12T08:52:39.358Z,30.74
2022-08-12T09:03:00.050Z,32.09
2022-08-12T09:08:14.133Z,32.68
2022-08-12T09:13:29.340Z,33.33
2022-08-12T09:18:52.649Z,33.44
2022-08-12T09:30:09.749Z,34.44
2022-08-12T09:34:50.643Z,35.15
2022-08-12T09:40:05.721Z,34.77
2022-08-12T09:46:06.559Z,35.08
2022-08-12T09:50:52.006Z,35.42
2022-08-12T09:56:07.040Z,35.66
2022-08-12T10:01:23.360Z,36.94
2022-08-12T10:06:35.928Z,36.62
2022-08-12T10:12:10.351Z,36.73
2022-08-12T10:17:14.625Z,36.75
2022-08-12T10:22:39.141Z,35.40
2022-08-12T10:28:04.232Z,35.46
2022-08-12T10:33:18.101Z,37.49
2022-08-12T10:38:33.757Z,37.84
2022-08-12T10:43:54.283Z,38.46
2022-08-12T10:49:06.784Z,38.30
2022-08-12T10:54:26.158Z,38.20
2022-08-12T11:00:31.314Z,36.32
2022-08-12T11:05:00.322Z,34.00
2022-08-12T11:10:26.564Z,34.93
2022-08-12T11:16:02.973Z,37.20
2022-08-12T11:20:54.365Z,35.51
2022-08-12T11:26:05.363Z,34.49
2022-08-12T11:31:13.977Z,37.55
2022-08-12T11:36:18.235Z,39.50
2022-08-12T11:41:31.018Z,37.94
2022-08-12T11:46:39.220Z,36.21
2022-08-12T11:51:41.715Z,35.85
2022-08-12T11:56:59.300Z,34.33
2022-08-12T12:02:05.436Z,35.22
2022-08-12T12:07:11.504Z,36.64
2022-08-12T12:12:14.865Z,39.33
2022-08-12T12:17:18.242Z,40.06
2022-08-12T12:22:23.398Z,37.94
2022-08-12T12:27:39.365Z,39.55
2022-08-12T12:32:53.725Z,41.32
2022-08-12T12:38:05.498Z,37.32
2022-08-12T12:43:16.595Z,39.12
2022-08-12T12:48:31.694Z,40.97
2022-08-12T12:54:06.120Z,37.95
2022-08-12T12:58:56.705Z,34.43
2022-08-12T13:04:02.254Z,33.10
2022-08-12T13:09:05.419Z,32.73
2022-08-12T13:14:12.826Z,36.34
2022-08-12T13:19:38.794Z,37.86
2022-08-12T13:24:56.148Z,34.54
2022-08-12T13:30:03.650Z,36.61
2022-08-12T13:35:20.419Z,38.23
2022-08-12T13:40:32.438Z,36.05
2022-08-12T13:45:36.661Z,33.87
2022-08-12T13:50:41.361Z,32.36
2022-08-12T13:55:47.283Z,31.97
2022-08-12T14:00:53.597Z,32.40
2022-08-12T14:05:59.599Z,33.84
2022-08-12T14:11:02.472Z,34.80
2022-08-12T14:16:14.414Z,34.71
2022-08-12T14:21:22.371Z,34.87
2022-08-12T14:26:25.239Z,36.60
2022-08-12T14:31:32.031Z,37.50
2022-08-12T14:36:34.849Z,37.08
2022-08-12T14:41:48.506Z,37.31
2022-08-12T14:47:00.727Z,36.34
2022-08-12T14:53:09.575Z,36.42
2022-08-12T14:57:57.196Z,36.79
2022-08-12T15:02:58.748Z,36.50
2022-08-12T15:08:05.057Z,37.04
2022-08-12T15:13:10.588Z,35.97
2022-08-12T15:18:21.476Z,33.72
2022-08-12T15:23:28.877Z,32.63
2022-08-12T15:28:34.419Z,32.28
2022-08-12T15:33:45.246Z,32.00
2022-08-12T15:38:50.554Z,31.60
2022-08-12T15:44:37.449Z,32.03
2022-08-12T15:49:19.524Z,32.79
2022-08-12T15:54:33.694Z,33.18
2022-08-12T16:00:04.430Z,33.04
2022-08-12T16:05:01.664Z,32.88
2022-08-12T16:10:08.680Z,32.58
2022-08-12T16:15:13.767Z,31.66
2022-08-12T16:20:21.867Z,31.17
2022-08-12T16:26:00.107Z,30.95
2022-08-12T16:30:53.756Z,30.87
2022-08-12T16:35:56.550Z,30.65
2022-08-12T16:40:59.103Z,30.64
2022-08-12T16:46:32.216Z,30.42
2022-08-12T16:51:40.421Z,30.35
2022-08-12T16:56:51.138Z,30.19
2022-08-12T17:02:00.409Z,29.99
2022-08-12T17:07:04.296Z,30.08
2022-08-12T17:12:07.347Z,30.13
2022-08-12T17:17:18.486Z,30.00
2022-08-12T17:22:37.262Z,29.93
2022-08-12T17:27:46.360Z,29.86
2022-08-12T17:32:53.432Z,29.74
2022-08-12T17:37:58.902Z,29.56
2022-08-12T17:43:55.899Z,29.64
2022-08-12T17:48:34.750Z,29.58
2022-08-12T17:54:11.086Z,29.45
2022-08-12T17:59:09.646Z,29.45
2022-08-12T18:04:21.704Z,29.51
2022-08-12T18:09:32.192Z,29.29
2022-08-12T18:14:41.236Z,29.33
2022-08-12T18:20:05.723Z,29.32
2022-08-12T18:26:15.513Z,29.31
2022-08-12T18:30:36.036Z,29.22
2022-08-12T18:35:47.150Z,29.06
2022-08-12T18:41:20.796Z,28.86
2022-08-12T18:46:32.383Z,28.90
2022-08-12T18:51:49.004Z,28.79
2022-08-12T18:56:57.654Z,28.50
2022-08-12T19:02:19.133Z,28.34
2022-08-12T19:07:29.778Z,27.92
2022-08-12T19:13:09.375Z,27.64
2022-08-12T19:18:13.776Z,27.24
2022-08-12T19:23:20.980Z,27.12
2022-08-12T19:28:30.316Z,27.35
2022-08-12T19:33:39.503Z,27.32
2022-08-12T19:38:57.098Z,27.70
2022-08-12T19:44:16.675Z,27.82
2022-08-12T19:49:23.313Z,27.67
2022-08-12T19:54:30.406Z,27.27
2022-08-12T19:59:43.477Z,27.12
2022-08-12T20:05:25.498Z,27.25
2022-08-12T20:10:35.290Z,27.36
2022-08-12T20:15:45.018Z,27.28
2022-08-12T20:20:48.070Z,27.04
2022-08-12T20:25:52.199Z,26.89
2022-08-12T20:31:02.047Z,27.04
2022-08-12T20:36:06.211Z,27.08
2022-08-12T20:41:19.217Z,27.09
2022-08-12T20:46:24.154Z,27.09
2022-08-12T20:51:55.258Z,26.90
2022-08-12T20:56:55.288Z,26.99
2022-08-12T21:01:58.001Z,27.07
2022-08-12T21:07:10.414Z,26.85
2022-08-12T21:12:24.702Z,26.49
2022-08-12T21:18:01.127Z,26.65
2022-08-12T21:22:56.164Z,26.72
2022-08-12T21:28:07.058Z,26.76
2022-08-12T21:33:16.942Z,26.72
2022-08-12T21:38:19.899Z,26.54
2022-08-12T21:43:26.495Z,26.38
2022-08-12T21:48:41.505Z,25.83
2022-08-12T21:54:07.778Z,25.47
2022-08-12T21:59:14.945Z,25.39
2022-08-12T22:04:36.376Z,25.69
2022-08-12T22:09:43.133Z,25.20
2022-08-12T22:14:47.127Z,24.84
2022-08-12T22:19:49.949Z,24.59
2022-08-12T22:24:53.051Z,24.78
2022-08-12T22:30:20.214Z,24.50
2022-08-12T22:35:55.237Z,24.17
2022-08-12T22:41:28.515Z,24.74
2022-08-12T22:46:34.674Z,24.54
2022-08-12T22:51:57.676Z,23.70
2022-08-12T22:57:02.659Z,23.77
2022-08-12T23:02:05.514Z,23.95
2022-08-12T23:07:08.030Z,23.95
2022-08-12T23:12:34.336Z,23.64
2022-08-12T23:17:41.659Z,23.97
2022-08-12T23:23:08.654Z,24.99
2022-08-12T23:28:29.964Z,25.53
2022-08-12T23:34:00.652Z,25.17
2022-08-12T23:39:01.695Z,23.97
2022-08-12T23:44:06.770Z,23.36
2022-08-12T23:49:27.051Z,23.37
2022-08-12T23:54:44.044Z,24.15
2022-08-12T23:59:55.416Z,24.93
